sensor_id;sensor_type;location;lat;lon;timestamp;P1;durP1;ratioP1;P2;durP2;ratioP2
75165;SDS011;63747;48.042;10.088;2022-12-31T00:00:49;1.73;;;1.30;;
75165;SDS011;63747;48.042;10.088;2022-12-31T00:03:50;3.20;;;1.27;;
75165;SDS011;63747;48.042;10.088;2022-12-31T00:06:51;1.88;;;1.40;;
75165;SDS011;63747;48.042;10.088;2022-12-31T00:09:51;2.53;;;1.30;;
75165;SDS011;63747;48.042;10.088;2022-12-31T00:12:52;2.00;;;1.20;;
75165;SDS011;63747;48.042;10.088;2022-12-31T00:15:53;1.63;;;1.23;;
75165;SDS011;63747;48.042;10.088;2022-12-31T00:18:54;1.70;;;1.00;;
75165;SDS011;63747;48.042;10.088;2022-12-31T00:21:58;1.27;;;0.90;;
75165;SDS011;63747;48.042;10.088;2022-12-31T00:24:58;1.27;;;0.90;;
75165;SDS011;63747;48.042;10.088;2022-12-31T00:27:59;1.33;;;0.90;;
75165;SDS011;63747;48.042;10.088;2022-12-31T00:31:08;1.50;;;1.00;;
75165;SDS011;63747;48.042;10.088;2022-12-31T00:34:13;1.60;;;0.98;;
75165;SDS011;63747;48.042;10.088;2022-12-31T00:37:14;2.60;;;1.00;;
75165;SDS011;63747;48.042;10.088;2022-12-31T00:40:14;1.30;;;0.83;;
75165;SDS011;63747;48.042;10.088;2022-12-31T00:43:15;1.63;;;0.97;;
75165;SDS011;63747;48.042;10.088;2022-12-31T00:46:16;1.87;;;1.37;;
75165;SDS011;63747;48.042;10.088;2022-12-31T00:52:55;1.38;;;0.90;;
75165;SDS011;63747;48.042;10.088;2022-12-31T00:55:59;1.63;;;1.00;;
75165;SDS011;63747;48.042;10.088;2022-12-31T00:59:01;1.40;;;0.90;;
75165;SDS011;63747;48.042;10.088;2022-12-31T01:05:59;1.63;;;0.75;;
75165;SDS011;63747;48.042;10.088;2022-12-31T01:08:59;1.10;;;0.80;;
75165;SDS011;63747;48.042;10.088;2022-12-31T01:12:00;1.90;;;0.77;;
75165;SDS011;63747;48.042;10.088;2022-12-31T01:15:02;2.65;;;0.80;;
75165;SDS011;63747;48.042;10.088;2022-12-31T01:18:04;2.03;;;0.90;;
75165;SDS011;63747;48.042;10.088;2022-12-31T01:25:03;1.23;;;0.70;;
75165;SDS011;63747;48.042;10.088;2022-12-31T01:32:00;0.80;;;0.65;;
75165;SDS011;63747;48.042;10.088;2022-12-31T01:35:01;1.10;;;0.90;;
75165;SDS011;63747;48.042;10.088;2022-12-31T01:38:02;1.20;;;0.90;;
75165;SDS011;63747;48.042;10.088;2022-12-31T01:41:03;1.80;;;0.80;;
75165;SDS011;63747;48.042;10.088;2022-12-31T01:47:12;1.10;;;0.80;;
75165;SDS011;63747;48.042;10.088;2022-12-31T01:50:17;1.02;;;0.70;;
75165;SDS011;63747;48.042;10.088;2022-12-31T01:57:21;1.77;;;0.80;;
75165;SDS011;63747;48.042;10.088;2022-12-31T02:04:23;0.80;;;0.60;;
75165;SDS011;63747;48.042;10.088;2022-12-31T02:07:25;0.77;;;0.60;;
75165;SDS011;63747;48.042;10.088;2022-12-31T02:10:27;0.87;;;0.60;;
75165;SDS011;63747;48.042;10.088;2022-12-31T02:13:28;1.15;;;0.60;;
75165;SDS011;63747;48.042;10.088;2022-12-31T02:16:33;0.80;;;0.60;;
75165;SDS011;63747;48.042;10.088;2022-12-31T02:34:29;2.15;;;0.50;;
75165;SDS011;63747;48.042;10.088;2022-12-31T02:37:06;0.85;;;0.55;;
75165;SDS011;63747;48.042;10.088;2022-12-31T02:40:12;0.98;;;0.70;;
75165;SDS011;63747;48.042;10.088;2022-12-31T02:43:17;0.80;;;0.60;;
75165;SDS011;63747;48.042;10.088;2022-12-31T02:46:23;1.73;;;0.60;;
75165;SDS011;63747;48.042;10.088;2022-12-31T02:53:10;1.38;;;0.68;;
75165;SDS011;63747;48.042;10.088;2022-12-31T03:00:05;1.08;;;0.70;;
75165;SDS011;63747;48.042;10.088;2022-12-31T03:07:25;1.63;;;0.80;;
75165;SDS011;63747;48.042;10.088;2022-12-31T03:20:53;0.90;;;0.63;;
75165;SDS011;63747;48.042;10.088;2022-12-31T03:24:13;0.98;;;0.60;;
75165;SDS011;63747;48.042;10.088;2022-12-31T03:27:32;0.63;;;0.50;;
75165;SDS011;63747;48.042;10.088;2022-12-31T03:30:34;2.30;;;0.60;;
75165;SDS011;63747;48.042;10.088;2022-12-31T03:33:37;0.90;;;0.60;;
75165;SDS011;63747;48.042;10.088;2022-12-31T03:36:39;1.58;;;0.50;;
75165;SDS011;63747;48.042;10.088;2022-12-31T03:39:40;1.03;;;0.60;;
75165;SDS011;63747;48.042;10.088;2022-12-31T03:42:40;0.70;;;0.50;;
75165;SDS011;63747;48.042;10.088;2022-12-31T03:45:42;1.50;;;0.30;;
75165;SDS011;63747;48.042;10.088;2022-12-31T03:52:37;0.50;;;0.32;;
75165;SDS011;63747;48.042;10.088;2022-12-31T03:55:38;0.70;;;0.43;;
75165;SDS011;63747;48.042;10.088;2022-12-31T03:58:39;1.03;;;0.60;;
75165;SDS011;63747;48.042;10.088;2022-12-31T04:05:31;0.40;;;0.30;;
75165;SDS011;63747;48.042;10.088;2022-12-31T04:12:29;0.45;;;0.40;;
75165;SDS011;63747;48.042;10.088;2022-12-31T04:15:30;0.60;;;0.40;;
75165;SDS011;63747;48.042;10.088;2022-12-31T04:18:31;0.45;;;0.40;;
75165;SDS011;63747;48.042;10.088;2022-12-31T04:25:28;0.65;;;0.40;;
75165;SDS011;63747;48.042;10.088;2022-12-31T04:28:28;0.60;;;0.50;;
75165;SDS011;63747;48.042;10.088;2022-12-31T04:35:26;0.70;;;0.40;;
75165;SDS011;63747;48.042;10.088;2022-12-31T04:38:27;1.13;;;0.53;;
75165;SDS011;63747;48.042;10.088;2022-12-31T04:41:30;0.50;;;0.47;;
75165;SDS011;63747;48.042;10.088;2022-12-31T04:44:31;0.93;;;0.53;;
75165;SDS011;63747;48.042;10.088;2022-12-31T04:47:34;1.00;;;0.60;;
75165;SDS011;63747;48.042;10.088;2022-12-31T04:50:34;1.77;;;0.40;;
75165;SDS011;63747;48.042;10.088;2022-12-31T04:53:35;1.83;;;1.00;;
75165;SDS011;63747;48.042;10.088;2022-12-31T04:56:36;1.15;;;0.63;;
75165;SDS011;63747;48.042;10.088;2022-12-31T04:59:37;0.60;;;0.50;;
75165;SDS011;63747;48.042;10.088;2022-12-31T05:02:37;0.40;;;0.30;;
75165;SDS011;63747;48.042;10.088;2022-12-31T05:05:38;1.40;;;0.80;;
75165;SDS011;63747;48.042;10.088;2022-12-31T05:08:41;1.00;;;0.43;;
75165;SDS011;63747;48.042;10.088;2022-12-31T05:11:42;0.50;;;0.40;;
75165;SDS011;63747;48.042;10.088;2022-12-31T05:14:43;0.40;;;0.40;;
75165;SDS011;63747;48.042;10.088;2022-12-31T05:17:44;0.90;;;0.57;;
75165;SDS011;63747;48.042;10.088;2022-12-31T05:20:45;1.03;;;0.50;;
75165;SDS011;63747;48.042;10.088;2022-12-31T05:23:46;0.50;;;0.40;;
75165;SDS011;63747;48.042;10.088;2022-12-31T05:29:54;1.80;;;1.05;;
75165;SDS011;63747;48.042;10.088;2022-12-31T05:32:55;2.05;;;0.40;;
75165;SDS011;63747;48.042;10.088;2022-12-31T05:35:56;0.40;;;0.40;;
75165;SDS011;63747;48.042;10.088;2022-12-31T05:38:59;0.47;;;0.30;;
75165;SDS011;63747;48.042;10.088;2022-12-31T05:42:00;0.20;;;0.20;;
75165;SDS011;63747;48.042;10.088;2022-12-31T05:45:00;0.67;;;0.40;;
75165;SDS011;63747;48.042;10.088;2022-12-31T05:48:01;0.65;;;0.35;;
75165;SDS011;63747;48.042;10.088;2022-12-31T05:51:02;0.40;;;0.30;;
75165;SDS011;63747;48.042;10.088;2022-12-31T05:54:03;0.75;;;0.38;;
75165;SDS011;63747;48.042;10.088;2022-12-31T05:57:04;0.87;;;0.30;;
75165;SDS011;63747;48.042;10.088;2022-12-31T06:00:05;0.63;;;0.30;;
75165;SDS011;63747;48.042;10.088;2022-12-31T06:03:07;0.73;;;0.47;;
75165;SDS011;63747;48.042;10.088;2022-12-31T06:06:08;0.60;;;0.30;;
75165;SDS011;63747;48.042;10.088;2022-12-31T06:09:09;0.63;;;0.40;;
75165;SDS011;63747;48.042;10.088;2022-12-31T06:12:09;3.27;;;0.67;;
75165;SDS011;63747;48.042;10.088;2022-12-31T06:15:10;0.50;;;0.40;;
75165;SDS011;63747;48.042;10.088;2022-12-31T06:18:11;0.40;;;0.30;;
75165;SDS011;63747;48.042;10.088;2022-12-31T06:21:12;1.13;;;0.40;;
75165;SDS011;63747;48.042;10.088;2022-12-31T06:24:12;1.93;;;0.50;;
75165;SDS011;63747;48.042;10.088;2022-12-31T06:27:13;0.50;;;0.30;;
75165;SDS011;63747;48.042;10.088;2022-12-31T06:30:14;0.73;;;0.30;;
75165;SDS011;63747;48.042;10.088;2022-12-31T06:33:14;0.50;;;0.40;;
75165;SDS011;63747;48.042;10.088;2022-12-31T06:36:15;0.93;;;0.40;;
75165;SDS011;63747;48.042;10.088;2022-12-31T06:39:16;1.42;;;0.32;;
75165;SDS011;63747;48.042;10.088;2022-12-31T06:42:16;0.50;;;0.30;;
75165;SDS011;63747;48.042;10.088;2022-12-31T06:45:17;0.23;;;0.20;;
75165;SDS011;63747;48.042;10.088;2022-12-31T06:48:18;1.77;;;0.85;;
75165;SDS011;63747;48.042;10.088;2022-12-31T06:51:19;1.10;;;0.60;;
75165;SDS011;63747;48.042;10.088;2022-12-31T06:54:21;0.80;;;0.70;;
75165;SDS011;63747;48.042;10.088;2022-12-31T06:57:22;0.70;;;0.70;;
75165;SDS011;63747;48.042;10.088;2022-12-31T07:00:23;1.38;;;0.60;;
75165;SDS011;63747;48.042;10.088;2022-12-31T07:06:50;0.50;;;0.30;;
75165;SDS011;63747;48.042;10.088;2022-12-31T07:13:19;0.40;;;0.25;;
75165;SDS011;63747;48.042;10.088;2022-12-31T07:16:40;0.43;;;0.40;;
75165;SDS011;63747;48.042;10.088;2022-12-31T07:20:11;0.30;;;0.30;;
75165;SDS011;63747;48.042;10.088;2022-12-31T07:23:12;0.98;;;0.50;;
75165;SDS011;63747;48.042;10.088;2022-12-31T07:26:23;0.60;;;0.40;;
75165;SDS011;63747;48.042;10.088;2022-12-31T07:30:04;0.68;;;0.50;;
75165;SDS011;63747;48.042;10.088;2022-12-31T07:36:41;1.30;;;0.55;;
75165;SDS011;63747;48.042;10.088;2022-12-31T07:43:59;0.57;;;0.50;;
75165;SDS011;63747;48.042;10.088;2022-12-31T07:47:23;0.50;;;0.30;;
75165;SDS011;63747;48.042;10.088;2022-12-31T07:50:25;0.45;;;0.30;;
75165;SDS011;63747;48.042;10.088;2022-12-31T07:53:26;1.02;;;0.40;;
75165;SDS011;63747;48.042;10.088;2022-12-31T07:56:27;0.45;;;0.38;;
75165;SDS011;63747;48.042;10.088;2022-12-31T08:06:32;1.23;;;0.30;;
75165;SDS011;63747;48.042;10.088;2022-12-31T08:09:45;0.93;;;0.30;;
75165;SDS011;63747;48.042;10.088;2022-12-31T08:12:48;3.72;;;1.70;;
75165;SDS011;63747;48.042;10.088;2022-12-31T08:18:50;0.40;;;0.40;;
75165;SDS011;63747;48.042;10.088;2022-12-31T08:28:35;0.88;;;0.75;;
75165;SDS011;63747;48.042;10.088;2022-12-31T08:31:43;0.80;;;0.70;;
75165;SDS011;63747;48.042;10.088;2022-12-31T08:34:54;1.00;;;0.60;;
75165;SDS011;63747;48.042;10.088;2022-12-31T08:41:28;1.13;;;0.60;;
75165;SDS011;63747;48.042;10.088;2022-12-31T08:44:36;0.93;;;0.40;;
75165;SDS011;63747;48.042;10.088;2022-12-31T08:47:46;0.50;;;0.30;;
75165;SDS011;63747;48.042;10.088;2022-12-31T08:50:54;0.77;;;0.38;;
75165;SDS011;63747;48.042;10.088;2022-12-31T08:53:55;1.55;;;0.50;;
75165;SDS011;63747;48.042;10.088;2022-12-31T08:57:02;0.63;;;0.50;;
75165;SDS011;63747;48.042;10.088;2022-12-31T09:00:14;0.98;;;0.60;;
75165;SDS011;63747;48.042;10.088;2022-12-31T09:03:39;1.83;;;1.30;;
75165;SDS011;63747;48.042;10.088;2022-12-31T09:07:05;0.77;;;0.60;;
75165;SDS011;63747;48.042;10.088;2022-12-31T09:20:03;1.05;;;0.40;;
75165;SDS011;63747;48.042;10.088;2022-12-31T09:23:05;0.93;;;0.30;;
75165;SDS011;63747;48.042;10.088;2022-12-31T09:29:40;0.60;;;0.35;;
75165;SDS011;63747;48.042;10.088;2022-12-31T09:35:49;2.60;;;1.08;;
75165;SDS011;63747;48.042;10.088;2022-12-31T09:42:35;0.50;;;0.30;;
75165;SDS011;63747;48.042;10.088;2022-12-31T09:46:06;0.93;;;0.40;;
75165;SDS011;63747;48.042;10.088;2022-12-31T09:49:22;0.85;;;0.40;;
75165;SDS011;63747;48.042;10.088;2022-12-31T10:05:33;0.70;;;0.70;;
75165;SDS011;63747;48.042;10.088;2022-12-31T10:09:02;5.38;;;3.45;;
75165;SDS011;63747;48.042;10.088;2022-12-31T10:15:28;4.65;;;3.40;;
75165;SDS011;63747;48.042;10.088;2022-12-31T10:18:51;6.03;;;4.90;;
75165;SDS011;63747;48.042;10.088;2022-12-31T10:25:49;0.93;;;0.32;;
75165;SDS011;63747;48.042;10.088;2022-12-31T10:29:32;0.93;;;0.25;;
75165;SDS011;63747;48.042;10.088;2022-12-31T10:36:14;0.70;;;0.40;;
75165;SDS011;63747;48.042;10.088;2022-12-31T10:39:27;0.40;;;0.30;;
75165;SDS011;63747;48.042;10.088;2022-12-31T10:43:28;0.57;;;0.40;;
75165;SDS011;63747;48.042;10.088;2022-12-31T11:00:26;0.38;;;0.38;;
75165;SDS011;63747;48.042;10.088;2022-12-31T11:07:12;0.90;;;0.30;;
75165;SDS011;63747;48.042;10.088;2022-12-31T11:20:42;0.68;;;0.40;;
75165;SDS011;63747;48.042;10.088;2022-12-31T11:50:27;1.60;;;0.30;;
75165;SDS011;63747;48.042;10.088;2022-12-31T11:56:39;0.70;;;0.40;;
75165;SDS011;63747;48.042;10.088;2022-12-31T11:59:43;2.38;;;0.73;;
75165;SDS011;63747;48.042;10.088;2022-12-31T12:02:44;0.30;;;0.30;;
75165;SDS011;63747;48.042;10.088;2022-12-31T12:05:48;0.63;;;0.40;;
75165;SDS011;63747;48.042;10.088;2022-12-31T12:08:48;0.45;;;0.25;;
75165;SDS011;63747;48.042;10.088;2022-12-31T12:11:56;0.70;;;0.30;;
75165;SDS011;63747;48.042;10.088;2022-12-31T12:14:59;2.10;;;0.32;;
75165;SDS011;63747;48.042;10.088;2022-12-31T12:18:04;0.68;;;0.30;;
75165;SDS011;63747;48.042;10.088;2022-12-31T12:21:16;0.63;;;0.32;;
75165;SDS011;63747;48.042;10.088;2022-12-31T12:24:23;0.95;;;0.40;;
75165;SDS011;63747;48.042;10.088;2022-12-31T12:27:27;0.70;;;0.40;;
75165;SDS011;63747;48.042;10.088;2022-12-31T12:30:29;0.70;;;0.40;;
75165;SDS011;63747;48.042;10.088;2022-12-31T12:33:41;1.30;;;0.57;;
75165;SDS011;63747;48.042;10.088;2022-12-31T12:36:46;1.15;;;0.45;;
75165;SDS011;63747;48.042;10.088;2022-12-31T12:39:53;0.82;;;0.40;;
75165;SDS011;63747;48.042;10.088;2022-12-31T12:43:00;2.28;;;1.60;;
75165;SDS011;63747;48.042;10.088;2022-12-31T12:46:06;0.50;;;0.40;;
75165;SDS011;63747;48.042;10.088;2022-12-31T12:49:24;0.32;;;0.30;;
75165;SDS011;63747;48.042;10.088;2022-12-31T12:52:35;0.73;;;0.32;;
75165;SDS011;63747;48.042;10.088;2022-12-31T12:55:53;0.55;;;0.40;;
75165;SDS011;63747;48.042;10.088;2022-12-31T13:09:02;0.38;;;0.32;;
75165;SDS011;63747;48.042;10.088;2022-12-31T13:12:27;3.83;;;2.95;;
75165;SDS011;63747;48.042;10.088;2022-12-31T13:18:58;1.63;;;1.00;;
75165;SDS011;63747;48.042;10.088;2022-12-31T13:22:54;3.78;;;1.92;;
75165;SDS011;63747;48.042;10.088;2022-12-31T13:29:18;1.83;;;1.00;;
75165;SDS011;63747;48.042;10.088;2022-12-31T13:32:24;3.55;;;2.38;;
75165;SDS011;63747;48.042;10.088;2022-12-31T13:35:59;3.45;;;2.63;;
75165;SDS011;63747;48.042;10.088;2022-12-31T13:39:04;1.65;;;0.90;;
75165;SDS011;63747;48.042;10.088;2022-12-31T13:42:08;3.28;;;2.50;;
75165;SDS011;63747;48.042;10.088;2022-12-31T13:45:19;1.25;;;0.82;;
75165;SDS011;63747;48.042;10.088;2022-12-31T13:48:29;1.13;;;0.50;;
75165;SDS011;63747;48.042;10.088;2022-12-31T13:58:34;1.00;;;0.80;;
75165;SDS011;63747;48.042;10.088;2022-12-31T14:01:41;1.10;;;1.00;;
75165;SDS011;63747;48.042;10.088;2022-12-31T14:04:57;1.05;;;0.95;;
75165;SDS011;63747;48.042;10.088;2022-12-31T14:08:03;0.75;;;0.70;;
75165;SDS011;63747;48.042;10.088;2022-12-31T14:11:10;3.17;;;0.70;;
75165;SDS011;63747;48.042;10.088;2022-12-31T14:18:05;0.98;;;0.60;;
75165;SDS011;63747;48.042;10.088;2022-12-31T14:24:39;0.70;;;0.60;;
75165;SDS011;63747;48.042;10.088;2022-12-31T14:27:44;1.10;;;0.80;;
75165;SDS011;63747;48.042;10.088;2022-12-31T14:30:49;3.75;;;1.55;;
75165;SDS011;63747;48.042;10.088;2022-12-31T14:34:07;6.90;;;3.70;;
75165;SDS011;63747;48.042;10.088;2022-12-31T14:37:22;5.20;;;3.08;;
75165;SDS011;63747;48.042;10.088;2022-12-31T14:44:53;9.73;;;7.32;;
75165;SDS011;63747;48.042;10.088;2022-12-31T14:47:58;9.95;;;6.47;;
75165;SDS011;63747;48.042;10.088;2022-12-31T14:51:27;12.93;;;8.00;;
75165;SDS011;63747;48.042;10.088;2022-12-31T14:54:36;6.18;;;4.30;;
75165;SDS011;63747;48.042;10.088;2022-12-31T14:57:38;5.03;;;2.40;;
75165;SDS011;63747;48.042;10.088;2022-12-31T15:00:49;11.65;;;8.93;;
75165;SDS011;63747;48.042;10.088;2022-12-31T15:03:53;9.35;;;7.50;;
75165;SDS011;63747;48.042;10.088;2022-12-31T15:07:09;8.85;;;7.95;;
75165;SDS011;63747;48.042;10.088;2022-12-31T15:10:28;5.57;;;4.95;;
75165;SDS011;63747;48.042;10.088;2022-12-31T15:14:02;4.25;;;3.67;;
75165;SDS011;63747;48.042;10.088;2022-12-31T15:20:48;2.47;;;1.65;;
75165;SDS011;63747;48.042;10.088;2022-12-31T15:24:16;54.45;;;35.53;;
75165;SDS011;63747;48.042;10.088;2022-12-31T15:30:46;7.90;;;2.40;;
75165;SDS011;63747;48.042;10.088;2022-12-31T15:33:56;1.83;;;1.30;;
75165;SDS011;63747;48.042;10.088;2022-12-31T15:36:59;2.83;;;1.80;;
75165;SDS011;63747;48.042;10.088;2022-12-31T15:46:25;2.53;;;1.80;;
75165;SDS011;63747;48.042;10.088;2022-12-31T15:49:31;1.90;;;1.50;;
75165;SDS011;63747;48.042;10.088;2022-12-31T15:52:41;3.00;;;2.10;;
75165;SDS011;63747;48.042;10.088;2022-12-31T15:55:45;5.95;;;3.83;;
75165;SDS011;63747;48.042;10.088;2022-12-31T15:58:48;4.47;;;2.95;;
75165;SDS011;63747;48.042;10.088;2022-12-31T16:01:57;2.78;;;2.17;;
75165;SDS011;63747;48.042;10.088;2022-12-31T16:04:58;3.60;;;2.25;;
75165;SDS011;63747;48.042;10.088;2022-12-31T16:07:59;3.88;;;1.92;;
75165;SDS011;63747;48.042;10.088;2022-12-31T16:11:01;3.28;;;2.67;;
75165;SDS011;63747;48.042;10.088;2022-12-31T16:14:04;3.30;;;2.80;;
75165;SDS011;63747;48.042;10.088;2022-12-31T16:17:06;4.90;;;3.55;;
75165;SDS011;63747;48.042;10.088;2022-12-31T16:20:22;14.02;;;11.18;;
75165;SDS011;63747;48.042;10.088;2022-12-31T16:23:26;5.93;;;4.63;;
75165;SDS011;63747;48.042;10.088;2022-12-31T16:29:40;6.65;;;4.47;;
75165;SDS011;63747;48.042;10.088;2022-12-31T16:32:45;6.40;;;4.32;;
75165;SDS011;63747;48.042;10.088;2022-12-31T16:35:53;21.70;;;14.95;;
75165;SDS011;63747;48.042;10.088;2022-12-31T16:42:23;14.82;;;11.20;;
75165;SDS011;63747;48.042;10.088;2022-12-31T16:45:33;13.40;;;10.55;;
75165;SDS011;63747;48.042;10.088;2022-12-31T16:48:35;16.55;;;13.75;;
75165;SDS011;63747;48.042;10.088;2022-12-31T16:51:37;13.98;;;12.52;;
75165;SDS011;63747;48.042;10.088;2022-12-31T16:54:38;19.27;;;14.80;;
75165;SDS011;63747;48.042;10.088;2022-12-31T16:57:45;99.28;;;71.65;;
75165;SDS011;63747;48.042;10.088;2022-12-31T17:00:52;65.63;;;40.35;;
75165;SDS011;63747;48.042;10.088;2022-12-31T17:03:56;55.90;;;39.67;;
75165;SDS011;63747;48.042;10.088;2022-12-31T17:10:34;28.27;;;20.73;;
75165;SDS011;63747;48.042;10.088;2022-12-31T17:13:35;48.13;;;32.33;;
75165;SDS011;63747;48.042;10.088;2022-12-31T17:16:58;9.83;;;7.13;;
75165;SDS011;63747;48.042;10.088;2022-12-31T17:19:59;7.15;;;4.88;;
75165;SDS011;63747;48.042;10.088;2022-12-31T17:23:03;7.25;;;6.15;;
75165;SDS011;63747;48.042;10.088;2022-12-31T17:26:13;7.20;;;6.00;;
75165;SDS011;63747;48.042;10.088;2022-12-31T17:29:21;10.73;;;7.85;;
75165;SDS011;63747;48.042;10.088;2022-12-31T17:32:35;11.38;;;8.07;;
75165;SDS011;63747;48.042;10.088;2022-12-31T17:35:37;19.77;;;15.60;;
75165;SDS011;63747;48.042;10.088;2022-12-31T17:38:41;17.45;;;14.32;;
75165;SDS011;63747;48.042;10.088;2022-12-31T17:41:45;28.63;;;20.55;;
75165;SDS011;63747;48.042;10.088;2022-12-31T17:44:48;16.73;;;13.80;;
75165;SDS011;63747;48.042;10.088;2022-12-31T17:47:49;31.50;;;22.92;;
75165;SDS011;63747;48.042;10.088;2022-12-31T17:50:53;12.88;;;10.63;;
75165;SDS011;63747;48.042;10.088;2022-12-31T17:53:58;46.55;;;30.90;;
75165;SDS011;63747;48.042;10.088;2022-12-31T18:00:06;34.10;;;26.77;;
75165;SDS011;63747;48.042;10.088;2022-12-31T18:03:15;14.30;;;10.70;;
75165;SDS011;63747;48.042;10.088;2022-12-31T18:06:16;13.27;;;10.40;;
75165;SDS011;63747;48.042;10.088;2022-12-31T18:09:19;19.00;;;14.10;;
75165;SDS011;63747;48.042;10.088;2022-12-31T18:12:20;11.52;;;8.30;;
75165;SDS011;63747;48.042;10.088;2022-12-31T18:15:21;12.38;;;7.35;;
75165;SDS011;63747;48.042;10.088;2022-12-31T18:18:24;6.80;;;5.95;;
75165;SDS011;63747;48.042;10.088;2022-12-31T18:21:27;12.93;;;8.07;;
75165;SDS011;63747;48.042;10.088;2022-12-31T18:24:32;7.53;;;6.47;;
75165;SDS011;63747;48.042;10.088;2022-12-31T18:27:33;8.45;;;6.68;;
75165;SDS011;63747;48.042;10.088;2022-12-31T18:30:34;13.57;;;10.60;;
75165;SDS011;63747;48.042;10.088;2022-12-31T18:33:36;11.10;;;8.77;;
75165;SDS011;63747;48.042;10.088;2022-12-31T18:36:37;7.40;;;6.60;;
75165;SDS011;63747;48.042;10.088;2022-12-31T18:39:38;6.83;;;5.23;;
75165;SDS011;63747;48.042;10.088;2022-12-31T18:42:39;6.65;;;5.60;;
75165;SDS011;63747;48.042;10.088;2022-12-31T18:45:40;13.90;;;9.43;;
75165;SDS011;63747;48.042;10.088;2022-12-31T18:48:41;22.77;;;14.68;;
75165;SDS011;63747;48.042;10.088;2022-12-31T18:51:41;2.97;;;2.07;;
75165;SDS011;63747;48.042;10.088;2022-12-31T18:54:42;4.33;;;3.43;;
75165;SDS011;63747;48.042;10.088;2022-12-31T18:57:43;2.40;;;1.95;;
75165;SDS011;63747;48.042;10.088;2022-12-31T19:00:44;2.63;;;2.43;;
75165;SDS011;63747;48.042;10.088;2022-12-31T19:03:48;4.55;;;2.53;;
75165;SDS011;63747;48.042;10.088;2022-12-31T19:06:48;2.92;;;1.92;;
75165;SDS011;63747;48.042;10.088;2022-12-31T19:09:49;2.75;;;2.03;;
75165;SDS011;63747;48.042;10.088;2022-12-31T19:12:50;2.43;;;2.03;;
75165;SDS011;63747;48.042;10.088;2022-12-31T19:15:52;2.30;;;1.50;;
75165;SDS011;63747;48.042;10.088;2022-12-31T19:18:52;3.17;;;1.38;;
75165;SDS011;63747;48.042;10.088;2022-12-31T19:21:54;2.03;;;1.60;;
75165;SDS011;63747;48.042;10.088;2022-12-31T19:24:55;1.30;;;1.10;;
75165;SDS011;63747;48.042;10.088;2022-12-31T19:27:56;3.07;;;1.17;;
75165;SDS011;63747;48.042;10.088;2022-12-31T19:30:57;1.63;;;1.10;;
75165;SDS011;63747;48.042;10.088;2022-12-31T19:33:58;1.30;;;1.00;;
75165;SDS011;63747;48.042;10.088;2022-12-31T19:36:58;3.30;;;2.80;;
75165;SDS011;63747;48.042;10.088;2022-12-31T19:39:59;3.20;;;2.03;;
75165;SDS011;63747;48.042;10.088;2022-12-31T19:43:00;5.10;;;3.20;;
75165;SDS011;63747;48.042;10.088;2022-12-31T19:46:02;5.03;;;3.37;;
75165;SDS011;63747;48.042;10.088;2022-12-31T19:49:03;2.92;;;1.70;;
75165;SDS011;63747;48.042;10.088;2022-12-31T19:52:03;9.43;;;4.00;;
75165;SDS011;63747;48.042;10.088;2022-12-31T19:55:04;5.20;;;2.50;;
75165;SDS011;63747;48.042;10.088;2022-12-31T19:58:06;3.13;;;2.17;;
75165;SDS011;63747;48.042;10.088;2022-12-31T20:01:07;1.40;;;1.30;;
75165;SDS011;63747;48.042;10.088;2022-12-31T20:04:16;2.00;;;1.65;;
75165;SDS011;63747;48.042;10.088;2022-12-31T20:07:18;2.70;;;1.47;;
75165;SDS011;63747;48.042;10.088;2022-12-31T20:10:18;11.82;;;8.57;;
75165;SDS011;63747;48.042;10.088;2022-12-31T20:13:19;42.63;;;32.60;;
75165;SDS011;63747;48.042;10.088;2022-12-31T20:16:22;3.07;;;2.20;;
75165;SDS011;63747;48.042;10.088;2022-12-31T20:19:25;4.95;;;3.72;;
75165;SDS011;63747;48.042;10.088;2022-12-31T20:22:26;3.03;;;1.67;;
75165;SDS011;63747;48.042;10.088;2022-12-31T20:25:26;2.47;;;1.20;;
75165;SDS011;63747;48.042;10.088;2022-12-31T20:28:27;1.87;;;1.27;;
75165;SDS011;63747;48.042;10.088;2022-12-31T20:31:28;2.15;;;1.42;;
75165;SDS011;63747;48.042;10.088;2022-12-31T20:34:29;2.00;;;1.17;;
75165;SDS011;63747;48.042;10.088;2022-12-31T20:37:30;4.28;;;3.28;;
75165;SDS011;63747;48.042;10.088;2022-12-31T20:40:31;5.33;;;4.40;;
75165;SDS011;63747;48.042;10.088;2022-12-31T20:43:32;5.40;;;4.35;;
75165;SDS011;63747;48.042;10.088;2022-12-31T20:46:34;6.55;;;4.60;;
75165;SDS011;63747;48.042;10.088;2022-12-31T20:49:35;8.07;;;5.13;;
75165;SDS011;63747;48.042;10.088;2022-12-31T20:52:35;8.07;;;6.22;;
75165;SDS011;63747;48.042;10.088;2022-12-31T20:55:37;6.63;;;5.63;;
75165;SDS011;63747;48.042;10.088;2022-12-31T20:58:38;7.68;;;6.03;;
75165;SDS011;63747;48.042;10.088;2022-12-31T21:01:38;11.63;;;8.23;;
75165;SDS011;63747;48.042;10.088;2022-12-31T21:04:39;20.27;;;12.63;;
75165;SDS011;63747;48.042;10.088;2022-12-31T21:07:40;16.25;;;10.32;;
75165;SDS011;63747;48.042;10.088;2022-12-31T21:10:41;58.33;;;22.50;;
75165;SDS011;63747;48.042;10.088;2022-12-31T21:13:43;20.65;;;11.48;;
75165;SDS011;63747;48.042;10.088;2022-12-31T21:16:44;17.17;;;12.35;;
75165;SDS011;63747;48.042;10.088;2022-12-31T21:19:45;19.83;;;16.57;;
75165;SDS011;63747;48.042;10.088;2022-12-31T21:22:46;19.65;;;16.67;;
75165;SDS011;63747;48.042;10.088;2022-12-31T21:25:47;14.93;;;11.57;;
75165;SDS011;63747;48.042;10.088;2022-12-31T21:28:49;10.73;;;8.40;;
75165;SDS011;63747;48.042;10.088;2022-12-31T21:31:50;8.40;;;6.53;;
75165;SDS011;63747;48.042;10.088;2022-12-31T21:34:51;9.95;;;7.40;;
75165;SDS011;63747;48.042;10.088;2022-12-31T21:37:52;8.63;;;7.07;;
75165;SDS011;63747;48.042;10.088;2022-12-31T21:40:52;10.43;;;7.10;;
75165;SDS011;63747;48.042;10.088;2022-12-31T21:43:53;13.40;;;7.60;;
75165;SDS011;63747;48.042;10.088;2022-12-31T21:46:55;8.67;;;5.40;;
75165;SDS011;63747;48.042;10.088;2022-12-31T21:50:19;8.30;;;5.78;;
75165;SDS011;63747;48.042;10.088;2022-12-31T21:53:21;8.47;;;6.63;;
75165;SDS011;63747;48.042;10.088;2022-12-31T21:56:23;7.18;;;6.22;;
75165;SDS011;63747;48.042;10.088;2022-12-31T21:59:24;5.63;;;4.30;;
75165;SDS011;63747;48.042;10.088;2022-12-31T22:02:43;26.48;;;18.05;;
75165;SDS011;63747;48.042;10.088;2022-12-31T22:06:04;20.40;;;13.95;;
75165;SDS011;63747;48.042;10.088;2022-12-31T22:09:12;60.20;;;26.95;;
75165;SDS011;63747;48.042;10.088;2022-12-31T22:12:12;31.90;;;18.58;;
75165;SDS011;63747;48.042;10.088;2022-12-31T22:15:13;15.40;;;8.57;;
75165;SDS011;63747;48.042;10.088;2022-12-31T22:18:15;10.55;;;6.35;;
75165;SDS011;63747;48.042;10.088;2022-12-31T22:21:17;7.57;;;5.35;;
75165;SDS011;63747;48.042;10.088;2022-12-31T22:24:19;6.57;;;5.45;;
75165;SDS011;63747;48.042;10.088;2022-12-31T22:27:20;22.77;;;16.93;;
75165;SDS011;63747;48.042;10.088;2022-12-31T22:30:21;7.07;;;5.20;;
75165;SDS011;63747;48.042;10.088;2022-12-31T22:33:21;6.10;;;4.47;;
75165;SDS011;63747;48.042;10.088;2022-12-31T22:36:22;6.00;;;4.43;;
75165;SDS011;63747;48.042;10.088;2022-12-31T22:39:23;7.30;;;5.25;;
75165;SDS011;63747;48.042;10.088;2022-12-31T22:42:24;7.77;;;6.03;;
75165;SDS011;63747;48.042;10.088;2022-12-31T22:45:25;15.63;;;9.30;;
75165;SDS011;63747;48.042;10.088;2022-12-31T22:48:25;25.83;;;13.37;;
75165;SDS011;63747;48.042;10.088;2022-12-31T22:51:26;16.53;;;9.83;;
75165;SDS011;63747;48.042;10.088;2022-12-31T22:54:28;28.45;;;17.38;;
75165;SDS011;63747;48.042;10.088;2022-12-31T22:57:29;30.23;;;15.63;;